createdAt,value
2019-03-17T00:02:17.647Z,65.95
2019-03-17T00:04:46.349Z,65.89
2019-03-17T00:07:15.050Z,66.08
2019-03-17T00:09:43.729Z,66.18
2019-03-17T00:12:12.481Z,66.19
2019-03-17T00:14:41.172Z,65.80
2019-03-17T00:17:10.164Z,65.88
2019-03-17T00:19:38.854Z,66.29
2019-03-17T00:22:07.864Z,66.36
2019-03-17T00:24:36.838Z,66.45
2019-03-17T00:27:05.585Z,66.22
2019-03-17T00:29:34.273Z,66.66
2019-03-17T00:32:02.981Z,66.66
2019-03-17T00:34:43.283Z,66.39
2019-03-17T00:37:02.226Z,66.55
2019-03-17T00:39:31.305Z,66.82
2019-03-17T00:42:00.302Z,66.82
2019-03-17T00:44:29.291Z,67.11
2019-03-17T00:46:58.051Z,67.00
2019-03-17T00:49:26.729Z,66.47
2019-03-17T00:51:55.446Z,66.72
2019-03-17T00:54:24.443Z,66.13
2019-03-17T00:56:53.136Z,66.07
2019-03-17T00:59:22.129Z,66.07
2019-03-17T01:01:52.988Z,66.64
2019-03-17T01:04:24.674Z,66.46
2019-03-17T01:06:53.375Z,66.70
2019-03-17T01:09:22.159Z,67.31
2019-03-17T01:11:50.881Z,67.36
2019-03-17T01:14:19.973Z,66.20
2019-03-17T01:16:48.711Z,66.45
2019-03-17T01:19:17.515Z,66.37
2019-03-17T01:21:46.192Z,66.67
2019-03-17T01:24:15.148Z,66.55
2019-03-17T01:26:43.837Z,66.91
2019-03-17T01:29:12.574Z,66.96
2019-03-17T01:31:41.284Z,66.60
2019-03-17T01:34:11.202Z,66.58
2019-03-17T01:36:40.391Z,66.55
2019-03-17T01:39:09.183Z,66.93
2019-03-17T01:41:37.930Z,66.66
2019-03-17T01:44:06.603Z,66.34
2019-03-17T01:46:35.318Z,67.07
2019-03-17T01:49:04.284Z,66.94
2019-03-17T01:51:33.631Z,67.12
2019-03-17T01:54:02.315Z,66.87
2019-03-17T01:56:31.311Z,66.81
2019-03-17T01:59:00.302Z,67.00
2019-03-17T02:01:29.042Z,66.52
2019-03-17T02:03:58.003Z,66.47
2019-03-17T02:06:26.992Z,66.56
2019-03-17T02:08:56.189Z,66.48
2019-03-17T02:11:24.964Z,66.80
2019-03-17T02:13:53.653Z,66.27
2019-03-17T02:16:22.573Z,66.67
2019-03-17T02:18:51.526Z,66.72
2019-03-17T02:21:20.476Z,66.66
2019-03-17T02:23:49.869Z,66.28
2019-03-17T02:26:18.660Z,66.14
2019-03-17T02:28:47.754Z,66.38
2019-03-17T02:31:16.419Z,66.91
2019-03-17T02:33:45.436Z,66.70
2019-03-17T02:36:14.685Z,66.09
2019-03-17T02:38:43.676Z,66.41
2019-03-17T02:41:12.348Z,66.35
2019-03-17T02:43:41.356Z,66.35
2019-03-17T02:46:10.051Z,65.87
2019-03-17T02:48:39.134Z,66.46
2019-03-17T02:51:07.821Z,66.70
2019-03-17T02:53:36.913Z,66.84
2019-03-17T02:56:05.629Z,66.74
2019-03-17T02:58:34.306Z,66.63
2019-03-17T03:01:03.353Z,66.48
2019-03-17T03:03:32.680Z,66.98
2019-03-17T03:06:01.690Z,66.63
2019-03-17T03:08:30.401Z,66.98
2019-03-17T03:10:59.760Z,66.77
2019-03-17T03:13:28.544Z,66.19
2019-03-17T03:15:57.540Z,66.27
2019-03-17T03:18:26.498Z,66.03
2019-03-17T03:20:55.533Z,65.57
2019-03-17T03:23:24.525Z,65.77
2019-03-17T03:25:53.820Z,65.75
2019-03-17T03:28:22.821Z,65.60
2019-03-17T03:30:51.556Z,65.87
2019-03-17T03:33:20.963Z,66.03
2019-03-17T03:35:49.698Z,66.21
2019-03-17T03:38:18.707Z,66.37
2019-03-17T03:40:47.672Z,65.83
2019-03-17T03:43:16.702Z,65.71
2019-03-17T03:45:45.964Z,66.12
2019-03-17T03:48:15.066Z,66.12
2019-03-17T03:50:43.732Z,66.71
2019-03-17T03:53:12.742Z,66.04
2019-03-17T03:55:42.259Z,65.84
2019-03-17T03:58:11.524Z,65.74
2019-03-17T04:00:40.536Z,65.58
2019-03-17T04:03:11.696Z,65.15
2019-03-17T04:05:40.975Z,65.49
2019-03-17T04:08:09.654Z,65.21
2019-03-17T04:10:38.344Z,65.72
2019-03-17T04:13:07.350Z,65.25
2019-03-17T04:15:36.116Z,65.47
2019-03-17T04:18:04.921Z,65.22
2019-03-17T04:20:34.222Z,65.04
2019-03-17T04:23:03.279Z,66.14
2019-03-17T04:25:31.993Z,66.37
2019-03-17T04:28:00.996Z,65.81
2019-03-17T04:30:30.300Z,65.89
2019-03-17T04:32:59.340Z,65.98
2019-03-17T04:35:28.088Z,65.81
2019-03-17T04:37:56.816Z,65.48
2019-03-17T04:40:25.856Z,65.48
2019-03-17T04:42:55.153Z,65.61
2019-03-17T04:45:24.996Z,65.40
2019-03-17T04:47:53.681Z,65.55
2019-03-17T04:50:22.870Z,65.72
2019-03-17T04:52:59.068Z,65.16
2019-03-17T04:55:28.108Z,65.52
2019-03-17T04:57:57.620Z,66.28
2019-03-17T05:00:26.909Z,66.28
2019-03-17T05:02:55.834Z,65.39
2019-03-17T05:05:24.509Z,65.61
2019-03-17T05:07:53.182Z,65.38
2019-03-17T05:10:22.971Z,65.66
2019-03-17T05:12:52.374Z,65.14
2019-03-17T05:15:21.079Z,65.66
2019-03-17T05:17:52.213Z,65.84
2019-03-17T05:20:21.204Z,65.30
2019-03-17T05:22:50.500Z,65.69
2019-03-17T05:25:19.177Z,65.83
2019-03-17T05:27:47.862Z,66.17
2019-03-17T05:30:16.541Z,65.68
2019-03-17T05:32:45.214Z,65.89
2019-03-17T05:35:14.234Z,65.27
2019-03-17T05:37:42.893Z,65.70
2019-03-17T05:40:12.443Z,65.89
2019-03-17T05:42:41.428Z,65.83
2019-03-17T05:45:10.799Z,66.48
2019-03-17T05:47:39.769Z,66.92
2019-03-17T05:50:09.116Z,66.65
2019-03-17T05:52:38.112Z,66.59
2019-03-17T05:55:07.093Z,66.75
2019-03-17T05:57:35.751Z,66.92
2019-03-17T06:00:04.639Z,66.70
2019-03-17T06:02:33.679Z,67.25
2019-03-17T06:05:02.349Z,67.01
2019-03-17T06:07:31.289Z,67.11
2019-03-17T06:09:59.963Z,66.96
2019-03-17T06:12:28.656Z,67.27
2019-03-17T06:14:57.641Z,67.41
2019-03-17T06:17:26.672Z,67.63
2019-03-17T06:19:56.010Z,67.32
2019-03-17T06:22:25.376Z,67.71
2019-03-17T06:24:54.053Z,66.98
2019-03-17T06:27:23.089Z,67.32
2019-03-17T06:29:52.088Z,67.63
2019-03-17T06:32:20.785Z,68.51
2019-03-17T06:34:49.432Z,69.04
2019-03-17T06:37:30.249Z,70.01
2019-03-17T06:39:48.865Z,70.69
2019-03-17T06:42:17.869Z,70.82
2019-03-17T06:44:46.858Z,70.81
2019-03-17T06:47:15.854Z,71.76
2019-03-17T06:49:44.844Z,70.78
2019-03-17T06:52:13.839Z,70.87
2019-03-17T06:54:43.138Z,71.58
2019-03-17T06:57:11.831Z,71.69
2019-03-17T06:59:40.799Z,71.71
2019-03-17T07:02:09.797Z,71.40
2019-03-17T07:04:39.013Z,71.60
2019-03-17T07:07:07.698Z,71.41
2019-03-17T07:09:36.671Z,71.74
2019-03-17T07:12:05.781Z,71.53
2019-03-17T07:14:35.097Z,72.96
2019-03-17T07:17:03.771Z,72.49
2019-03-17T07:19:32.484Z,73.09
2019-03-17T07:22:01.454Z,74.14
2019-03-17T07:24:30.625Z,74.47
2019-03-17T07:26:59.672Z,74.65
2019-03-17T07:29:28.665Z,75.54
2019-03-17T07:31:57.438Z,75.35
2019-03-17T07:34:26.485Z,76.47
2019-03-17T07:36:55.503Z,77.79
2019-03-17T07:39:24.178Z,77.70
2019-03-17T07:41:53.489Z,78.64
2019-03-17T07:44:22.177Z,77.30
2019-03-17T07:46:51.154Z,78.70
2019-03-17T07:49:20.725Z,78.63
2019-03-17T07:51:49.427Z,77.86
2019-03-17T07:54:18.350Z,78.41
2019-03-17T07:56:47.352Z,78.48
2019-03-17T07:59:16.642Z,78.81
2019-03-17T08:01:45.637Z,78.42
2019-03-17T08:04:14.645Z,78.14
2019-03-17T08:06:43.619Z,78.17
2019-03-17T08:09:12.618Z,77.19
2019-03-17T08:11:41.618Z,77.29
2019-03-17T08:14:11.007Z,77.29
2019-03-17T08:16:40.049Z,76.80
2019-03-17T08:19:09.342Z,76.71
2019-03-17T08:21:38.394Z,77.64
2019-03-17T08:24:07.158Z,76.64
2019-03-17T08:26:35.879Z,76.43
2019-03-17T08:29:04.866Z,76.69
2019-03-17T08:31:33.556Z,76.76
2019-03-17T08:34:02.649Z,77.98
2019-03-17T08:36:31.351Z,78.16
2019-03-17T08:39:00.303Z,77.95
2019-03-17T08:41:29.295Z,78.55
2019-03-17T08:43:58.614Z,78.77
2019-03-17T08:46:27.282Z,79.04
2019-03-17T08:48:56.117Z,79.06
2019-03-17T08:51:24.907Z,79.37
2019-03-17T08:53:53.869Z,79.54
2019-03-17T08:56:22.787Z,79.80
2019-03-17T08:58:51.856Z,80.04
2019-03-17T09:01:20.831Z,80.72
2019-03-17T09:03:49.543Z,81.51
2019-03-17T09:06:18.219Z,81.20
2019-03-17T09:08:47.312Z,81.75
2019-03-17T09:11:16.005Z,82.21
2019-03-17T09:13:44.991Z,82.73
2019-03-17T09:16:13.688Z,82.63
2019-03-17T09:18:42.622Z,82.17
2019-03-17T09:21:11.307Z,82.53
2019-03-17T09:23:42.668Z,82.03
2019-03-17T09:26:10.672Z,83.55
2019-03-17T09:28:39.447Z,82.46
2019-03-17T09:31:08.385Z,83.09
2019-03-17T09:33:37.342Z,84.04
2019-03-17T09:36:06.103Z,83.42
2019-03-17T09:38:46.714Z,83.85
2019-03-17T09:41:05.875Z,83.58
2019-03-17T09:43:34.627Z,82.69
2019-03-17T09:46:03.351Z,82.21
2019-03-17T09:48:32.324Z,81.63
2019-03-17T09:51:01.276Z,81.27
2019-03-17T09:53:30.242Z,81.27
2019-03-17T09:55:59.261Z,80.07
2019-03-17T09:58:28.046Z,80.49
2019-03-17T10:00:57.092Z,79.91
2019-03-17T10:03:26.152Z,80.10
2019-03-17T10:05:54.843Z,80.18
2019-03-17T10:08:23.569Z,79.60
2019-03-17T10:10:52.265Z,79.59
2019-03-17T10:13:21.003Z,79.24
2019-03-17T10:15:49.709Z,79.12
2019-03-17T10:18:19.117Z,79.28
2019-03-17T10:20:47.918Z,79.07
2019-03-17T10:23:16.998Z,78.58
2019-03-17T10:25:46.094Z,79.73
2019-03-17T10:28:14.902Z,78.58
2019-03-17T10:30:43.600Z,78.45
2019-03-17T10:33:12.593Z,78.22
2019-03-17T10:35:41.284Z,75.36
2019-03-17T10:38:10.333Z,76.94
2019-03-17T10:40:39.027Z,75.30
2019-03-17T10:43:07.813Z,75.48
2019-03-17T10:45:36.812Z,75.11
2019-03-17T10:48:06.051Z,74.66
2019-03-17T10:50:34.770Z,74.11
2019-03-17T10:53:03.556Z,75.73
2019-03-17T10:55:32.389Z,73.46
2019-03-17T10:58:01.085Z,73.51
2019-03-17T11:00:29.768Z,74.45
2019-03-17T11:02:58.742Z,74.69
2019-03-17T11:05:27.422Z,74.03
2019-03-17T11:07:56.188Z,73.69
2019-03-17T11:10:24.891Z,73.87
2019-03-17T11:12:53.893Z,72.66
2019-03-17T11:15:22.987Z,71.50
2019-03-17T11:17:51.739Z,72.44
2019-03-17T11:20:20.967Z,72.09
2019-03-17T11:22:49.674Z,72.17
2019-03-17T11:25:18.412Z,72.47
2019-03-17T11:27:47.747Z,72.88
2019-03-17T11:30:16.875Z,72.25
2019-03-17T11:32:45.977Z,70.90
2019-03-17T11:35:14.864Z,71.26
2019-03-17T11:37:43.594Z,70.32
2019-03-17T11:40:13.150Z,70.45
2019-03-17T11:42:42.085Z,70.62
2019-03-17T11:45:12.692Z,69.19
2019-03-17T11:47:41.451Z,68.39
2019-03-17T11:50:11.903Z,68.33
2019-03-17T11:52:40.741Z,68.83
2019-03-17T11:55:09.939Z,69.09
2019-03-17T11:57:39.141Z,69.13
2019-03-17T12:00:09.647Z,68.41
2019-03-17T12:02:39.159Z,67.86
2019-03-17T12:05:08.731Z,68.06
2019-03-17T12:07:37.445Z,69.26
2019-03-17T12:10:07.805Z,69.22
2019-03-17T12:12:37.198Z,70.17
2019-03-17T12:15:06.829Z,72.95
2019-03-17T12:17:35.913Z,75.65
2019-03-17T12:20:05.835Z,74.17
2019-03-17T12:22:34.904Z,75.60
2019-03-17T12:25:03.808Z,73.01
2019-03-17T12:27:32.910Z,74.63
2019-03-17T12:30:01.830Z,75.37
2019-03-17T12:32:30.823Z,73.27
2019-03-17T12:34:59.570Z,73.45
2019-03-17T12:37:28.675Z,73.33
2019-03-17T12:40:02.519Z,70.36
2019-03-17T12:42:28.326Z,70.34
2019-03-17T12:44:57.063Z,70.53
2019-03-17T12:47:26.054Z,70.54
2019-03-17T12:49:55.245Z,70.07
2019-03-17T12:52:24.190Z,70.14
2019-03-17T12:54:53.251Z,73.10
2019-03-17T12:57:22.018Z,72.33
2019-03-17T12:59:50.742Z,72.34
2019-03-17T13:02:19.562Z,73.08
2019-03-17T13:04:48.510Z,71.12
2019-03-17T13:07:17.575Z,71.13
2019-03-17T13:09:46.327Z,71.64
2019-03-17T13:12:15.185Z,71.07
2019-03-17T13:14:44.077Z,71.29
2019-03-17T13:17:13.085Z,70.33
2019-03-17T13:19:41.883Z,69.73
2019-03-17T13:22:10.596Z,71.18
2019-03-17T13:24:39.609Z,71.99
2019-03-17T13:27:08.542Z,71.28
2019-03-17T13:29:37.416Z,71.91
2019-03-17T13:32:06.279Z,73.76
2019-03-17T13:34:35.214Z,74.39
2019-03-17T13:37:04.676Z,74.83
2019-03-17T13:39:33.658Z,74.23
2019-03-17T13:42:02.403Z,75.39
2019-03-17T13:44:31.387Z,74.95
2019-03-17T13:47:00.368Z,77.34
2019-03-17T13:49:29.440Z,77.16
2019-03-17T13:52:00.608Z,76.27
2019-03-17T13:54:30.108Z,76.82
2019-03-17T13:56:59.368Z,78.61
2019-03-17T13:59:28.093Z,79.08
2019-03-17T14:01:56.800Z,79.68
2019-03-17T14:04:25.551Z,78.82
2019-03-17T14:06:54.347Z,78.21
2019-03-17T14:09:25.417Z,77.97
2019-03-17T14:11:54.726Z,78.28
2019-03-17T14:14:23.751Z,77.25
2019-03-17T14:16:52.495Z,75.47
2019-03-17T14:19:21.495Z,74.66
2019-03-17T14:21:50.470Z,71.83
2019-03-17T14:24:19.438Z,72.01
2019-03-17T14:26:48.653Z,70.79
2019-03-17T14:29:17.424Z,71.13
2019-03-17T14:31:46.403Z,72.05
2019-03-17T14:34:17.824Z,72.33
2019-03-17T14:36:46.783Z,71.22
2019-03-17T14:39:15.742Z,72.24
2019-03-17T14:41:50.732Z,72.91
2019-03-17T14:44:19.736Z,73.07
2019-03-17T14:46:48.462Z,71.91
2019-03-17T14:49:17.232Z,70.82
2019-03-17T14:51:45.927Z,72.25
2019-03-17T14:54:14.876Z,73.40
2019-03-17T14:56:43.657Z,76.42
2019-03-17T14:59:12.614Z,79.75
2019-03-17T15:01:41.455Z,81.15
2019-03-17T15:04:10.784Z,82.31
2019-03-17T15:06:39.868Z,83.05
2019-03-17T15:09:08.787Z,82.41
2019-03-17T15:11:37.595Z,82.51
2019-03-17T15:14:06.382Z,82.92
2019-03-17T15:16:37.017Z,80.70
2019-03-17T15:19:06.214Z,80.17
2019-03-17T15:21:35.187Z,81.06
2019-03-17T15:24:04.152Z,80.86
2019-03-17T15:26:33.208Z,79.70
2019-03-17T15:29:02.219Z,77.22
2019-03-17T15:31:30.959Z,76.99
2019-03-17T15:33:59.657Z,76.74
2019-03-17T15:36:29.449Z,75.27
2019-03-17T15:38:58.701Z,75.52
2019-03-17T15:41:27.441Z,74.85
2019-03-17T15:43:56.380Z,76.42
2019-03-17T15:46:25.111Z,75.07
2019-03-17T15:48:54.054Z,73.80
2019-03-17T15:51:22.917Z,74.60
2019-03-17T15:53:51.601Z,72.85
2019-03-17T15:56:20.281Z,71.06
2019-03-17T15:58:48.984Z,70.70
2019-03-17T16:01:17.700Z,70.32
2019-03-17T16:03:46.653Z,71.51
2019-03-17T16:06:15.713Z,70.47
2019-03-17T16:08:45.141Z,71.04
2019-03-17T16:11:13.829Z,70.49
2019-03-17T16:13:42.901Z,69.46
2019-03-17T16:16:11.973Z,69.94
2019-03-17T16:18:41.152Z,70.73
2019-03-17T16:21:09.842Z,71.87
2019-03-17T16:23:38.798Z,72.37
2019-03-17T16:26:07.808Z,72.82
2019-03-17T16:28:36.796Z,72.80
2019-03-17T16:31:05.517Z,73.27
2019-03-17T16:33:34.527Z,73.13
2019-03-17T16:36:03.488Z,73.98
2019-03-17T16:38:34.901Z,73.21
2019-03-17T16:41:03.680Z,73.98
2019-03-17T16:43:32.632Z,74.30
2019-03-17T16:46:01.953Z,73.70
2019-03-17T16:48:30.683Z,74.52
2019-03-17T16:50:59.408Z,74.52
2019-03-17T16:53:28.090Z,74.41
2019-03-17T16:55:56.877Z,73.44
2019-03-17T16:58:25.579Z,74.23
2019-03-17T17:00:54.513Z,74.43
2019-03-17T17:03:23.720Z,73.53
2019-03-17T17:05:52.518Z,73.75
2019-03-17T17:08:21.684Z,73.67
2019-03-17T17:10:50.839Z,73.49
2019-03-17T17:13:19.910Z,73.37
2019-03-17T17:15:48.856Z,73.12
2019-03-17T17:18:17.532Z,72.63
2019-03-17T17:20:46.475Z,72.59
2019-03-17T17:23:15.470Z,72.89
2019-03-17T17:25:44.171Z,73.10
2019-03-17T17:28:13.103Z,72.51
2019-03-17T17:30:41.801Z,72.95
2019-03-17T17:33:11.042Z,72.14
2019-03-17T17:35:39.721Z,71.89
2019-03-17T17:38:08.656Z,72.23
2019-03-17T17:40:37.366Z,72.30
2019-03-17T17:43:06.066Z,73.03
2019-03-17T17:45:34.995Z,73.02
2019-03-17T17:48:03.688Z,73.00
2019-03-17T17:50:32.744Z,73.69
2019-03-17T17:53:01.672Z,70.50
2019-03-17T17:55:30.378Z,73.20
2019-03-17T17:57:59.214Z,75.47
2019-03-17T18:00:30.237Z,76.84
2019-03-17T18:02:59.514Z,77.36
2019-03-17T18:05:28.592Z,78.27
2019-03-17T18:07:57.295Z,78.91
2019-03-17T18:10:26.246Z,78.52
2019-03-17T18:12:55.163Z,78.30
2019-03-17T18:15:24.163Z,77.58
2019-03-17T18:17:53.164Z,77.32
2019-03-17T18:20:22.021Z,77.05
2019-03-17T18:22:51.028Z,76.69
2019-03-17T18:25:19.880Z,75.21
2019-03-17T18:27:48.816Z,75.46
2019-03-17T18:30:18.210Z,74.73
2019-03-17T18:32:47.238Z,73.33
2019-03-17T18:35:16.162Z,72.43
2019-03-17T18:37:45.165Z,72.01
2019-03-17T18:40:14.614Z,71.60
2019-03-17T18:42:43.424Z,71.51
2019-03-17T18:45:17.105Z,71.48
2019-03-17T18:47:46.135Z,69.78
2019-03-17T18:50:20.793Z,69.71
2019-03-17T18:52:46.404Z,70.48
2019-03-17T18:55:15.256Z,70.68
2019-03-17T18:57:44.262Z,70.94
2019-03-17T19:00:15.161Z,71.06
2019-03-17T19:02:44.077Z,71.28
2019-03-17T19:05:13.060Z,71.50
2019-03-17T19:07:42.164Z,71.79
2019-03-17T19:10:11.032Z,71.76
2019-03-17T19:12:45.800Z,72.09
2019-03-17T19:15:13.186Z,71.78
2019-03-17T19:17:42.222Z,71.59
2019-03-17T19:20:13.818Z,71.84
2019-03-17T19:22:43.691Z,72.20
2019-03-17T19:25:13.222Z,72.09
2019-03-17T19:27:42.331Z,72.48
2019-03-17T19:30:12.698Z,72.44
2019-03-17T19:32:41.502Z,72.49
2019-03-17T19:35:10.575Z,72.61
2019-03-17T19:37:39.255Z,72.93
2019-03-17T19:40:08.958Z,73.18
2019-03-17T19:42:37.863Z,73.57
2019-03-17T19:45:07.064Z,73.79
2019-03-17T19:47:36.245Z,74.24
2019-03-17T19:50:05.383Z,74.01
2019-03-17T19:52:34.052Z,74.54
2019-03-17T19:55:02.786Z,74.81
2019-03-17T19:57:31.733Z,74.67
2019-03-17T20:00:00.689Z,74.19
2019-03-17T20:02:29.426Z,74.00
2019-03-17T20:05:00.731Z,74.22
2019-03-17T20:07:29.699Z,73.92
2019-03-17T20:09:58.465Z,74.50
2019-03-17T20:12:27.646Z,73.83
2019-03-17T20:14:56.356Z,74.19
2019-03-17T20:17:25.086Z,74.10
2019-03-17T20:19:53.763Z,74.16
2019-03-17T20:22:22.490Z,73.39
2019-03-17T20:24:51.475Z,73.69
2019-03-17T20:27:20.162Z,73.07
2019-03-17T20:29:48.854Z,73.21
2019-03-17T20:32:17.528Z,72.99
2019-03-17T20:34:46.471Z,72.56
2019-03-17T20:37:15.415Z,72.52
2019-03-17T20:39:44.336Z,72.86
2019-03-17T20:42:13.302Z,72.60
2019-03-17T20:44:42.236Z,72.72
2019-03-17T20:47:11.434Z,73.13
2019-03-17T20:49:40.487Z,72.79
2019-03-17T20:52:09.185Z,72.93
2019-03-17T20:54:38.122Z,72.77
2019-03-17T20:57:06.814Z,73.20
2019-03-17T20:59:35.507Z,72.78
2019-03-17T21:02:04.830Z,73.42
2019-03-17T21:04:33.507Z,73.12
2019-03-17T21:07:02.707Z,73.74
2019-03-17T21:09:31.378Z,74.16
2019-03-17T21:12:00.584Z,74.76
2019-03-17T21:14:30.803Z,74.91
2019-03-17T21:16:59.527Z,74.97
2019-03-17T21:19:28.234Z,75.54
2019-03-17T21:21:57.441Z,76.05
2019-03-17T21:24:26.659Z,76.11
2019-03-17T21:26:55.638Z,76.17
2019-03-17T21:29:24.320Z,76.41
2019-03-17T21:31:53.037Z,76.31
2019-03-17T21:34:22.312Z,76.31
2019-03-17T21:36:51.039Z,76.68
2019-03-17T21:39:20.238Z,76.73
2019-03-17T21:41:49.061Z,76.44
2019-03-17T21:44:19.051Z,76.54
2019-03-17T21:46:47.786Z,76.20
2019-03-17T21:49:17.558Z,75.40
2019-03-17T21:51:48.553Z,75.73
2019-03-17T21:54:17.863Z,75.83
2019-03-17T21:56:46.596Z,75.79
2019-03-17T21:59:15.612Z,75.29
2019-03-17T22:01:44.607Z,75.49
2019-03-17T22:04:13.330Z,76.11
2019-03-17T22:06:42.088Z,76.55
2019-03-17T22:09:10.752Z,76.31
2019-03-17T22:11:41.614Z,76.71
2019-03-17T22:14:12.229Z,76.66
2019-03-17T22:16:40.636Z,75.94
2019-03-17T22:19:09.623Z,75.87
2019-03-17T22:21:38.316Z,76.01
2019-03-17T22:24:07.267Z,75.36
2019-03-17T22:26:36.236Z,75.80
2019-03-17T22:29:05.291Z,75.83
2019-03-17T22:31:34.177Z,76.46
2019-03-17T22:34:03.380Z,76.90
2019-03-17T22:36:32.346Z,77.19
2019-03-17T22:39:01.124Z,77.76
2019-03-17T22:41:29.941Z,77.75
2019-03-17T22:43:59.189Z,77.84
2019-03-17T22:46:27.869Z,77.45
2019-03-17T22:48:59.057Z,77.20
2019-03-17T22:51:27.760Z,77.39
2019-03-17T22:53:56.849Z,77.76
2019-03-17T22:56:25.474Z,77.57
2019-03-17T22:58:54.198Z,77.36
2019-03-17T23:01:23.261Z,77.68
2019-03-17T23:03:51.972Z,77.63
2019-03-17T23:06:20.689Z,77.97
2019-03-17T23:08:49.393Z,77.80
2019-03-17T23:11:18.436Z,77.99
2019-03-17T23:13:47.378Z,77.97
2019-03-17T23:16:16.087Z,77.79
2019-03-17T23:18:45.052Z,78.00
2019-03-17T23:21:14.245Z,78.14
2019-03-17T23:23:43.200Z,78.29
2019-03-17T23:26:11.919Z,78.37
2019-03-17T23:28:40.934Z,78.65
2019-03-17T23:31:09.633Z,78.03
2019-03-17T23:33:38.345Z,78.39
2019-03-17T23:36:07.277Z,77.93
2019-03-17T23:38:35.955Z,78.10
2019-03-17T23:41:04.639Z,78.03
2019-03-17T23:43:33.375Z,78.07
2019-03-17T23:46:02.082Z,77.71
2019-03-17T23:48:30.779Z,77.85
2019-03-17T23:50:59.983Z,77.83
2019-03-17T23:53:28.926Z,78.00
2019-03-17T23:55:57.641Z,78.00
2019-03-17T23:58:26.615Z,77.73
